Oliver Hazard Perry — KOHZ — position and weather

sailwx.info

Track history (hours):
 
Tides and Currents Weather Stations Pressure Air Temp Water Temp Dewpoint Dewpoint Depression Visibility Wind Speed Wind Dir Waves Ship Positions

Oliver Hazard Perry

Owner: Oliver Hazard Perry Rhode Island, Newport, RI. More information available from US FCC via Universal Licensing System and Coast Guard Vessel Documentation Center.

Last reported at 2017-May-28 08:00 UTC. Time now 2017-May-28 08:27 UTC.
Position N 42°37' W 070°23'.

Length 61 m; draft 3.5 m.

Type: Sailing vessel. MMSI: 367658110.

Date/timePositionNaut miles runAvg speedWind from/ knotsBaromVisibWave heightAir tempDewpointWater temp
2017-May-28 08:00N 42°37' W 070°23'1 2.1
2017-May-28 07:30N 42°36' W 070°22'1 1.5
2017-May-28 07:00N 42°36' W 070°21'1 1.2
2017-May-28 06:30N 42°36' W 070°21'1 2.0
2017-May-28 06:00N 42°35' W 070°21'1 1.8
2017-May-28 05:30N 42°34' W 070°22'1 1.5
2017-May-28 05:00N 42°34' W 070°23'1 1.7
2017-May-28 04:30N 42°33' W 070°24'1 1.4
2017-May-28 04:00N 42°32' W 070°24'1 1.4
2017-May-28 03:30N 42°32' W 070°25'1 1.5
2017-May-28 03:00N 42°31' W 070°26'1 1.1
2017-May-28 02:30N 42°31' W 070°26'1 1.4
2017-May-28 02:00N 42°30' W 070°26'1 1.4
2017-May-28 01:30N 42°29' W 070°26'1 1.6
2017-May-28 01:00N 42°29' W 070°26'1 1.8
2017-May-28 00:30N 42°28' W 070°26'1 1.7
2017-May-28 00:00N 42°27' W 070°27'1 1.3
2017-May-27 23:30N 42°26' W 070°27'1 1.9
2017-May-27 23:00N 42°25' W 070°26'1 2.3
2017-May-27 22:30N 42°24' W 070°25'1 2.2
2017-May-27 22:01N 42°23' W 070°25'2 3.2
2017-May-27 21:30N 42°23' W 070°23'3 5.5
2017-May-27 20:55N 42°22' W 070°19'3 7.3
2017-May-27 20:31N 42°19' W 070°18'  
Track history (hours):
 
Tides and Currents Weather Stations Pressure Air Temp Water Temp Dewpoint Dewpoint Depression Visibility Wind Speed Wind Dir Waves Ship Positions

Oliver Hazard Perry

Owner: Oliver Hazard Perry Rhode Island, Newport, RI. More information available from US FCC via Universal Licensing System and Coast Guard Vessel Documentation Center.

Last reported at 2017-May-28 08:00 UTC. Time now 2017-May-28 08:27 UTC.
Position N 42°37' W 070°23'.

Length 61 m; draft 3.5 m.

Type: Sailing vessel. MMSI: 367658110.

Date/timePositionNaut miles runAvg speedWind from/ knotsBaromVisibWave heightAir tempDewpointWater temp
2017-May-28 08:00N 42°37' W 070°23'1 2.1
2017-May-28 07:30N 42°36' W 070°22'1 1.5
2017-May-28 07:00N 42°36' W 070°21'1 1.2
2017-May-28 06:30N 42°36' W 070°21'1 2.0
2017-May-28 06:00N 42°35' W 070°21'1 1.8
2017-May-28 05:30N 42°34' W 070°22'1 1.5
2017-May-28 05:00N 42°34' W 070°23'1 1.7
2017-May-28 04:30N 42°33' W 070°24'1 1.4
2017-May-28 04:00N 42°32' W 070°24'1 1.4
2017-May-28 03:30N 42°32' W 070°25'1 1.5
2017-May-28 03:00N 42°31' W 070°26'1 1.1
2017-May-28 02:30N 42°31' W 070°26'1 1.4
2017-May-28 02:00N 42°30' W 070°26'1 1.4
2017-May-28 01:30N 42°29' W 070°26'1 1.6
2017-May-28 01:00N 42°29' W 070°26'1 1.8
2017-May-28 00:30N 42°28' W 070°26'1 1.7
2017-May-28 00:00N 42°27' W 070°27'1 1.3
2017-May-27 23:30N 42°26' W 070°27'1 1.9
2017-May-27 23:00N 42°25' W 070°26'1 2.3
2017-May-27 22:30N 42°24' W 070°25'1 2.2
2017-May-27 22:01N 42°23' W 070°25'2 3.2
2017-May-27 21:30N 42°23' W 070°23'3 5.5
2017-May-27 20:55N 42°22' W 070°19'3 7.3
2017-May-27 20:31N 42°19' W 070°18'  

Dump ship's entire track history